Airfield :
LOGIN :

Register | Disclaimer

   EN    FR    IT 

 










Legend :    VFR   Marginal VFR   IFR   Intensive IFR   Very Intensive IFR
Visi :
Ceiling :
>= 8 km
>= 3000ft
5 to 8 km
1000 to 3000 ft
1500m to 5 km
500 to 1000 ft
800 to 1500m
200 to 500 ft
< 800m
< 200 ft
Symbols :   Thunderstorms  Fog  Heavy snow  Heavy precipitations  Wind > 20 kt
SIGMETs :     Misc.  Thunderstorms  Icing  Turbulence  Mountain Waves  Volcanic Ashes






- Airport Elevation : 19 ft
- IATA code : LCY


EGLC - London City

CURRENT METAR :
  • 241220Z AUTO 20004KT 120V260 9999 SCT024 BKN029 BKN035 08/03 Q0996

EXPIRED METARs :
  • 241150Z AUTO 20005KT 140V240 9999 FEW037 BKN044 08/03 Q0996
  • 241120Z AUTO 22003KT 170V260 9999 NCD 08/02 Q0996
  • 241050Z AUTO 23003KT 170V310 9999 NCD 08/03 Q0996
  • 241020Z AUTO VRB01KT 9999 NCD 07/03 Q0995
  • 240950Z AUTO VRB02KT 9999 NCD 06/03 Q0995
  • 240920Z AUTO 22003KT 180V270 9999 NCD 05/02 Q0995
  • 240850Z AUTO 21003KT 150V280 9999 NCD 04/02 Q0995
  • 240820Z AUTO 23003KT 180V280 9999 NCD 03/01 Q0995
  • 240750Z AUTO 23004KT 170V330 9999 NCD 02/01 Q0994

TAF TAF EGLC
Valid from the 24 at 09:00 until the 24 at 18:00 UTC


240800Z 2409/2418 21004KT 9999 FEW030
TEMPO 2411/2413 7000 SHRA
PROB30
TEMPO 2412/2413 4000 +SHRA BKN014
ATIS : +44 20 7646 0224



MET'MAP, your aeronautical weather chart ! - Copyright ORBIFLY December 2007 - Disclaimer

ORBIFLY MET'MAP TEAM :

Programming & Development : Alexandra Zaïnal
Original concept : Baudouin d'Aumeries
Technical & hardware support : Manuel Goepfert
Assistance : Marc-Olivier Méhu




SOURCES & CREDITS :

   NOAA